createdAt,value
2019-02-23T00:02:12.826Z,16.35
2019-02-23T00:04:51.911Z,17.20
2019-02-23T00:07:31.694Z,15.23
2019-02-23T00:10:11.050Z,14.55
2019-02-23T00:12:50.267Z,15.80
2019-02-23T00:15:29.387Z,15.90
2019-02-23T00:18:14.067Z,17.37
2019-02-23T00:20:53.560Z,14.15
2019-02-23T00:23:32.801Z,13.32
2019-02-23T00:26:11.924Z,12.70
2019-02-23T00:28:51.982Z,16.12
2019-02-23T00:31:33.459Z,15.32
2019-02-23T00:34:12.427Z,13.45
2019-02-23T00:36:51.547Z,13.18
2019-02-23T00:39:30.791Z,14.55
2019-02-23T00:42:09.742Z,14.78
2019-02-23T00:44:50.068Z,13.75
2019-02-23T00:47:31.681Z,11.80
2019-02-23T00:50:10.684Z,12.35
2019-02-23T00:52:50.755Z,11.95
2019-02-23T00:55:29.955Z,12.90
2019-02-23T00:58:09.197Z,12.35
2019-02-23T01:00:48.191Z,12.60
2019-02-23T01:03:27.386Z,13.10
2019-02-23T01:06:06.424Z,13.13
2019-02-23T01:08:46.688Z,11.83
2019-02-23T01:11:25.930Z,12.10
2019-02-23T01:14:04.975Z,12.05
2019-02-23T01:16:44.174Z,12.10
2019-02-23T01:19:23.189Z,11.88
2019-02-23T01:22:02.810Z,10.60
2019-02-23T01:24:43.006Z,10.88
2019-02-23T01:27:22.025Z,11.15
2019-02-23T01:30:02.098Z,11.40
2019-02-23T01:35:24.339Z,12.73
2019-02-23T01:38:03.485Z,13.35
2019-02-23T01:40:42.677Z,12.05
2019-02-23T01:43:21.732Z,11.83
2019-02-23T01:46:00.896Z,10.15
2019-02-23T01:48:40.947Z,10.60
2019-02-23T01:51:19.728Z,10.43
2019-02-23T01:53:58.809Z,9.75
2019-02-23T01:56:37.953Z,10.70
2019-02-23T01:59:17.311Z,10.32
2019-02-23T02:01:56.328Z,10.38
2019-02-23T02:04:39.498Z,11.00
2019-02-23T02:07:21.681Z,12.25
2019-02-23T02:10:00.713Z,9.68
2019-02-23T02:12:40.950Z,9.38
2019-02-23T02:15:20.996Z,8.80
2019-02-23T02:18:00.462Z,11.08
2019-02-23T02:20:39.911Z,10.98
2019-02-23T02:23:20.741Z,12.05
2019-02-23T02:25:59.784Z,10.23
2019-02-23T02:28:39.408Z,9.43
2019-02-23T02:31:18.509Z,10.30
2019-02-23T02:34:20.637Z,11.00
2019-02-23T02:37:00.551Z,10.68
2019-02-23T02:39:40.448Z,9.88
2019-02-23T02:42:19.829Z,9.38
2019-02-23T02:44:58.675Z,9.53
2019-02-23T02:47:38.258Z,9.55
2019-02-23T02:50:24.373Z,8.73
2019-02-23T02:52:59.072Z,8.80
2019-02-23T02:55:39.280Z,9.43
2019-02-23T02:58:22.221Z,8.95
2019-02-23T03:01:07.346Z,9.08
2019-02-23T03:03:47.649Z,9.08
2019-02-23T03:06:26.707Z,8.85
2019-02-23T03:09:06.171Z,9.68
2019-02-23T03:11:46.650Z,9.90
2019-02-23T03:14:25.798Z,10.00
2019-02-23T03:17:07.573Z,10.40
2019-02-23T03:19:46.596Z,10.72
2019-02-23T03:22:25.622Z,9.83
2019-02-23T03:25:07.495Z,10.78
2019-02-23T03:27:47.307Z,9.83
2019-02-23T03:30:26.466Z,11.35
2019-02-23T03:33:05.629Z,10.68
2019-02-23T03:35:48.007Z,10.25
2019-02-23T03:38:27.404Z,9.50
2019-02-23T03:41:07.188Z,10.53
2019-02-23T03:43:47.583Z,10.18
2019-02-23T03:46:29.665Z,11.03
2019-02-23T03:51:44.754Z,9.48
2019-02-23T03:54:24.054Z,9.88
2019-02-23T03:57:03.218Z,9.13
2019-02-23T03:59:43.335Z,9.33
2019-02-23T04:02:22.516Z,9.33
2019-02-23T04:05:01.694Z,9.05
2019-02-23T04:07:40.967Z,10.08
2019-02-23T04:10:20.490Z,9.03
2019-02-23T04:13:00.637Z,9.43
2019-02-23T04:15:40.745Z,8.93
2019-02-23T04:18:19.791Z,9.08
2019-02-23T04:21:01.982Z,9.10
2019-02-23T04:23:39.550Z,9.13
2019-02-23T04:26:19.602Z,9.35
2019-02-23T04:28:58.862Z,8.73
2019-02-23T04:31:37.942Z,8.80
2019-02-23T04:34:18.468Z,9.18
2019-02-23T04:36:58.171Z,8.70
2019-02-23T04:39:42.151Z,8.63
2019-02-23T04:42:36.930Z,8.15
2019-02-23T04:45:21.829Z,9.03
2019-02-23T04:48:07.993Z,9.13
2019-02-23T04:50:49.483Z,8.75
2019-02-23T04:53:28.659Z,8.85
2019-02-23T04:56:09.538Z,8.80
2019-02-23T04:58:56.623Z,8.70
2019-02-23T05:01:37.596Z,8.80
2019-02-23T05:04:16.875Z,8.37
2019-02-23T05:07:02.913Z,8.53
2019-02-23T05:09:42.302Z,8.60
2019-02-23T05:12:22.574Z,8.35
2019-02-23T05:15:04.907Z,8.53
2019-02-23T05:17:44.165Z,8.48
2019-02-23T05:20:24.424Z,8.68
2019-02-23T05:23:04.997Z,8.60
2019-02-23T05:25:47.174Z,9.15
2019-02-23T05:28:28.877Z,9.23
2019-02-23T05:31:09.722Z,9.25
2019-02-23T05:33:51.420Z,9.38
2019-02-23T05:36:30.677Z,8.40
2019-02-23T05:39:12.564Z,9.15
2019-02-23T05:41:51.990Z,8.43
2019-02-23T05:44:31.334Z,8.00
2019-02-23T05:47:37.175Z,10.50
2019-02-23T05:50:19.876Z,8.75
2019-02-23T05:52:59.475Z,9.03
2019-02-23T05:55:46.719Z,10.43
2019-02-23T06:01:39.848Z,8.85
2019-02-23T06:04:25.930Z,9.03
2019-02-23T06:07:06.537Z,8.15
2019-02-23T06:09:44.812Z,8.83
2019-02-23T06:43:22.124Z,8.53
2019-02-23T06:46:03.847Z,8.48
2019-02-23T06:48:43.173Z,8.53
2019-02-23T06:51:22.423Z,8.35
2019-02-23T06:54:01.723Z,8.38
2019-02-23T06:56:41.434Z,8.48
2019-02-23T06:59:22.291Z,8.98
2019-02-23T07:02:03.361Z,8.95
2019-02-23T07:05:11.426Z,7.92
2019-02-23T07:07:53.514Z,8.60
2019-02-23T07:10:33.391Z,8.80
2019-02-23T07:13:13.013Z,8.20
2019-02-23T07:15:53.840Z,8.30
2019-02-23T07:18:34.292Z,8.50
2019-02-23T07:21:16.082Z,7.95
2019-02-23T07:23:58.411Z,9.43
2019-02-23T07:26:38.946Z,8.50
2019-02-23T07:29:19.175Z,8.70
2019-02-23T07:32:00.454Z,9.18
2019-02-23T07:34:39.969Z,8.93
2019-02-23T07:37:19.524Z,9.18
2019-02-23T07:39:58.957Z,9.20
2019-02-23T07:42:40.697Z,8.95
2019-02-23T07:45:20.281Z,9.60
2019-02-23T07:48:01.251Z,9.10
2019-02-23T07:50:41.071Z,9.50
2019-02-23T07:53:21.778Z,9.30
2019-02-23T07:56:01.578Z,9.90
2019-02-23T07:58:43.417Z,9.50
2019-02-23T08:01:23.805Z,9.30
2019-02-23T08:04:03.754Z,9.63
2019-02-23T08:06:43.927Z,9.58
2019-02-23T08:09:26.793Z,9.93
2019-02-23T08:12:07.740Z,10.38
2019-02-23T08:14:50.492Z,11.00
2019-02-23T08:17:31.766Z,9.75
2019-02-23T08:20:19.188Z,10.05
2019-02-23T08:23:01.470Z,10.05
2019-02-23T08:25:41.158Z,9.95
2019-02-23T08:28:21.092Z,9.78
2019-02-23T08:31:01.178Z,9.20
2019-02-23T08:33:41.044Z,9.90
2019-02-23T08:36:20.634Z,9.85
2019-02-23T08:39:00.297Z,9.63
2019-02-23T08:41:43.338Z,10.28
2019-02-23T08:44:23.402Z,9.95
2019-02-23T08:47:02.935Z,9.95
2019-02-23T08:49:45.932Z,10.23
2019-02-23T08:52:27.581Z,10.43
2019-02-23T08:55:07.280Z,10.00
2019-02-23T08:57:49.425Z,10.18
2019-02-23T09:00:29.837Z,9.95
2019-02-23T09:03:09.573Z,9.65
2019-02-23T09:05:49.146Z,10.45
2019-02-23T09:08:30.272Z,10.08
2019-02-23T09:11:10.061Z,10.03
2019-02-23T09:13:50.222Z,10.10
2019-02-23T09:16:29.687Z,10.30
2019-02-23T09:19:10.519Z,10.30
2019-02-23T09:21:51.127Z,10.72
2019-02-23T09:24:30.874Z,10.82
2019-02-23T09:27:10.559Z,10.70
2019-02-23T09:29:51.204Z,10.65
2019-02-23T09:32:34.289Z,11.83
2019-02-23T09:35:13.907Z,11.20
2019-02-23T09:37:54.656Z,10.60
2019-02-23T09:40:35.612Z,10.28
2019-02-23T09:43:17.589Z,10.30
2019-02-23T09:45:55.924Z,10.58
2019-02-23T09:48:36.758Z,10.95
2019-02-23T09:51:16.448Z,10.25
2019-02-23T09:53:55.849Z,10.30
2019-02-23T09:56:36.090Z,10.00
2019-02-23T09:59:15.171Z,10.48
2019-02-23T10:01:56.684Z,9.95
2019-02-23T10:04:37.463Z,11.10
2019-02-23T10:07:17.896Z,10.72
2019-02-23T10:09:56.017Z,10.82
2019-02-23T10:12:40.568Z,10.55
2019-02-23T10:15:21.673Z,9.55
2019-02-23T10:18:00.663Z,9.68
2019-02-23T10:20:41.951Z,9.20
2019-02-23T10:23:22.259Z,10.60
2019-02-23T10:26:01.720Z,9.35
2019-02-23T10:28:42.134Z,8.80
2019-02-23T10:31:21.729Z,10.40
2019-02-23T10:34:04.775Z,8.40
2019-02-23T10:36:44.753Z,8.45
2019-02-23T10:39:26.182Z,8.33
2019-02-23T10:42:05.447Z,8.63
2019-02-23T10:44:46.014Z,8.43
2019-02-23T10:47:25.333Z,8.45
2019-02-23T10:50:04.487Z,8.93
2019-02-23T10:52:45.565Z,8.55
2019-02-23T10:55:26.047Z,8.85
2019-02-23T10:58:05.258Z,8.95
2019-02-23T11:00:44.591Z,8.98
2019-02-23T11:06:22.987Z,9.85
2019-02-23T11:09:05.855Z,9.45
2019-02-23T11:11:48.283Z,9.00
2019-02-23T11:14:26.232Z,9.20
2019-02-23T11:17:05.242Z,9.80
2019-02-23T11:19:44.652Z,10.20
2019-02-23T11:22:23.750Z,9.78
2019-02-23T11:25:03.543Z,9.60
2019-02-23T11:27:43.700Z,10.08
2019-02-23T11:30:23.493Z,9.05
2019-02-23T11:33:02.730Z,9.78
2019-02-23T11:35:42.041Z,10.60
2019-02-23T11:38:21.480Z,10.98
2019-02-23T11:41:00.853Z,10.43
2019-02-23T11:43:40.212Z,11.20
2019-02-23T11:46:19.303Z,10.38
2019-02-23T11:48:59.239Z,9.75
2019-02-23T11:51:39.979Z,8.08
2019-02-23T11:54:20.371Z,8.40
2019-02-23T11:56:59.763Z,8.83
2019-02-23T11:59:39.017Z,8.80
2019-02-23T12:02:19.276Z,8.38
2019-02-23T12:04:58.911Z,8.98
2019-02-23T12:07:39.175Z,8.80
2019-02-23T12:10:18.668Z,8.45
2019-02-23T12:12:57.964Z,8.10
2019-02-23T12:15:37.151Z,9.03
2019-02-23T12:18:20.232Z,9.30
2019-02-23T12:21:00.628Z,8.40
2019-02-23T12:23:40.184Z,9.80
2019-02-23T12:26:19.391Z,9.73
2019-02-23T12:28:59.436Z,10.40
2019-02-23T12:31:39.465Z,10.48
2019-02-23T12:34:19.222Z,10.80
2019-02-23T12:36:58.631Z,11.48
2019-02-23T12:39:38.385Z,12.07
2019-02-23T12:42:18.202Z,12.60
2019-02-23T12:44:57.883Z,13.72
2019-02-23T12:47:37.664Z,13.43
2019-02-23T12:50:17.231Z,12.43
2019-02-23T12:52:59.688Z,12.60
2019-02-23T12:55:38.109Z,13.83
2019-02-23T12:58:17.987Z,11.18
2019-02-23T13:00:57.945Z,12.25
2019-02-23T13:03:37.711Z,10.68
2019-02-23T13:06:18.578Z,9.50
2019-02-23T13:09:19.763Z,9.83
2019-02-23T13:12:03.926Z,9.67
2019-02-23T13:15:01.482Z,9.68
2019-02-23T13:18:13.917Z,10.78
2019-02-23T13:21:25.620Z,10.53
2019-02-23T13:24:34.152Z,9.78
2019-02-23T13:28:06.354Z,10.05
2019-02-23T13:31:36.746Z,10.85
2019-02-23T13:34:59.716Z,12.20
2019-02-23T13:37:53.374Z,13.43
2019-02-23T13:41:27.348Z,11.93
2019-02-23T13:44:42.041Z,11.30
2019-02-23T13:48:11.464Z,11.90
2019-02-23T13:51:18.337Z,11.70
2019-02-23T13:54:39.153Z,11.35
2019-02-23T13:57:50.809Z,12.43
2019-02-23T14:00:56.931Z,11.45
2019-02-23T14:04:15.123Z,11.78
2019-02-23T14:07:35.281Z,11.90
2019-02-23T14:10:40.352Z,11.53
2019-02-23T14:13:57.891Z,11.95
2019-02-23T14:17:15.644Z,11.75
2019-02-23T14:20:10.315Z,11.80
2019-02-23T14:23:30.848Z,12.15
2019-02-23T14:27:04.657Z,10.90
2019-02-23T14:30:15.050Z,10.15
2019-02-23T14:33:20.741Z,11.18
2019-02-23T14:36:30.870Z,12.43
2019-02-23T14:39:45.777Z,13.13
2019-02-23T14:43:33.345Z,14.83
2019-02-23T14:46:56.571Z,14.55
2019-02-23T14:50:15.067Z,13.45
2019-02-23T14:53:31.156Z,14.70
2019-02-23T14:56:54.625Z,11.78
2019-02-23T15:00:04.527Z,12.43
2019-02-23T15:02:59.577Z,12.95
2019-02-23T15:06:20.996Z,14.85
2019-02-23T15:09:40.554Z,14.05
2019-02-23T15:12:42.628Z,14.28
2019-02-23T15:16:16.753Z,16.00
2019-02-23T15:19:24.249Z,14.55
2019-02-23T15:22:41.697Z,12.55
2019-02-23T15:26:07.764Z,11.83
2019-02-23T15:29:14.751Z,11.97
2019-02-23T15:32:43.039Z,13.78
2019-02-23T15:35:58.951Z,12.47
2019-02-23T15:39:24.262Z,14.25
2019-02-23T15:42:40.672Z,13.72
2019-02-23T15:45:42.833Z,13.95
2019-02-23T15:49:02.907Z,14.47
2019-02-23T15:51:46.671Z,14.63
2019-02-23T15:54:31.771Z,14.28
2019-02-23T15:57:11.216Z,14.47
2019-02-23T15:59:50.945Z,14.28
2019-02-23T16:02:30.506Z,13.22
2019-02-23T16:05:11.004Z,13.22
2019-02-23T16:07:52.077Z,12.82
2019-02-23T16:10:32.327Z,12.98
2019-02-23T16:13:13.929Z,13.25
2019-02-23T16:15:53.521Z,13.15
2019-02-23T16:18:32.887Z,12.70
2019-02-23T16:21:13.889Z,12.98
2019-02-23T16:23:53.108Z,13.25
2019-02-23T16:26:32.868Z,13.25
2019-02-23T16:32:47.175Z,13.08
2019-02-23T16:35:29.098Z,13.22
2019-02-23T16:38:08.881Z,13.05
2019-02-23T16:40:50.443Z,14.13
2019-02-23T16:43:31.305Z,13.85
2019-02-23T16:46:13.455Z,13.98
2019-02-23T16:48:53.200Z,12.25
2019-02-23T16:51:36.313Z,12.13
2019-02-23T16:54:21.168Z,12.85
2019-02-23T16:57:01.992Z,13.83
2019-02-23T16:59:41.982Z,12.23
2019-02-23T17:02:24.267Z,11.63
2019-02-23T17:05:03.407Z,12.82
2019-02-23T17:07:43.921Z,12.13
2019-02-23T17:10:23.607Z,12.53
2019-02-23T17:13:03.099Z,11.10
2019-02-23T17:15:46.027Z,13.03
2019-02-23T17:18:25.163Z,11.28
2019-02-23T17:21:04.503Z,13.28
2019-02-23T17:23:44.633Z,12.90
2019-02-23T17:26:27.139Z,12.10
2019-02-23T17:29:07.827Z,11.45
2019-02-23T17:31:48.605Z,11.73
2019-02-23T17:34:55.427Z,12.13
2019-02-23T17:41:50.337Z,11.03
2019-02-23T17:44:24.908Z,11.43
2019-02-23T17:47:07.744Z,11.33
2019-02-23T17:49:56.293Z,11.28
2019-02-23T17:52:40.514Z,10.88
2019-02-23T17:55:20.764Z,10.72
2019-02-23T17:57:59.973Z,11.18
2019-02-23T18:00:40.092Z,12.23
2019-02-23T18:03:20.344Z,12.07
2019-02-23T18:05:59.412Z,11.03
2019-02-23T18:08:38.861Z,10.85
2019-02-23T18:11:21.393Z,11.48
2019-02-23T18:16:40.124Z,10.85
2019-02-23T18:19:19.086Z,11.10
2019-02-23T18:21:58.840Z,10.88
2019-02-23T18:24:41.223Z,10.13
2019-02-23T18:27:21.197Z,10.78
2019-02-23T18:30:09.451Z,11.80
2019-02-23T18:32:43.892Z,11.57
2019-02-23T18:35:25.310Z,11.40
2019-02-23T18:38:05.379Z,10.95
2019-02-23T18:40:45.593Z,10.93
2019-02-23T18:43:24.581Z,10.98
2019-02-23T18:46:04.768Z,11.45
2019-02-23T18:48:44.507Z,10.40
2019-02-23T18:51:23.948Z,10.72
2019-02-23T18:54:03.523Z,11.05
2019-02-23T18:56:43.658Z,11.75
2019-02-23T18:59:24.366Z,11.30
2019-02-23T19:02:04.143Z,11.15
2019-02-23T19:04:43.600Z,10.10
2019-02-23T19:07:24.587Z,11.70
2019-02-23T19:10:04.654Z,11.25
2019-02-23T19:12:47.195Z,12.18
2019-02-23T19:15:26.276Z,11.15
2019-02-23T19:18:05.433Z,11.73
2019-02-23T19:20:44.360Z,11.60
2019-02-23T19:23:23.506Z,10.55
2019-02-23T19:26:02.602Z,10.30
2019-02-23T19:28:45.288Z,11.00
2019-02-23T19:31:25.288Z,10.32
2019-02-23T19:34:04.754Z,11.05
2019-02-23T19:36:45.117Z,10.75
2019-02-23T19:39:24.695Z,11.20
2019-02-23T19:42:03.846Z,10.72
2019-02-23T19:44:43.186Z,11.00
2019-02-23T19:47:26.709Z,11.83
2019-02-23T19:50:10.504Z,11.25
2019-02-23T19:52:52.609Z,12.20
2019-02-23T19:55:32.004Z,11.08
2019-02-23T19:58:12.215Z,11.53
2019-02-23T20:00:51.648Z,11.10
2019-02-23T20:03:30.959Z,11.63
2019-02-23T20:06:10.171Z,12.03
2019-02-23T20:08:49.465Z,11.68
2019-02-23T20:11:29.571Z,12.10
2019-02-23T20:14:10.076Z,12.80
2019-02-23T20:17:03.208Z,12.28
2019-02-23T20:19:48.287Z,11.55
2019-02-23T20:22:30.480Z,11.88
2019-02-23T20:25:14.063Z,12.63
2019-02-23T20:27:54.211Z,12.25
2019-02-23T20:30:33.429Z,10.90
2019-02-23T20:33:23.871Z,11.05
2019-02-23T20:36:05.695Z,11.22
2019-02-23T20:38:51.050Z,12.03
2019-02-23T20:41:31.151Z,11.00
2019-02-23T20:44:10.618Z,11.20
2019-02-23T20:46:52.055Z,13.85
2019-02-23T20:49:31.896Z,14.47
2019-02-23T20:52:12.985Z,11.48
2019-02-23T20:54:54.100Z,12.00
2019-02-23T20:57:48.655Z,12.30
2019-02-23T21:00:28.852Z,12.55
2019-02-23T21:03:12.528Z,12.13
2019-02-23T21:05:53.045Z,12.18
2019-02-23T21:08:38.551Z,11.33
2019-02-23T21:11:17.863Z,11.22
2019-02-23T21:13:57.312Z,12.58
2019-02-23T21:16:36.649Z,11.93
2019-02-23T21:19:15.948Z,24.40
2019-02-23T21:21:56.176Z,15.32
2019-02-23T21:24:36.913Z,12.28
2019-02-23T21:27:17.476Z,12.70
2019-02-23T21:29:58.669Z,13.80
2019-02-23T21:32:39.943Z,13.48
2019-02-23T21:35:19.429Z,13.40
2019-02-23T21:37:58.540Z,12.80
2019-02-23T21:40:38.072Z,12.65
2019-02-23T21:43:19.279Z,13.70
2019-02-23T21:45:59.104Z,14.70
2019-02-23T21:48:42.612Z,17.05
2019-02-23T21:51:22.261Z,18.27
2019-02-23T21:54:09.741Z,16.37
2019-02-23T21:56:43.312Z,15.63
2019-02-23T21:59:22.397Z,14.87
2019-02-23T22:02:02.700Z,29.52
2019-02-23T22:07:38.088Z,14.80
2019-02-23T22:10:17.506Z,14.38
2019-02-23T22:12:58.764Z,13.70
2019-02-23T22:15:37.759Z,13.55
2019-02-23T22:18:17.565Z,18.32
2019-02-23T22:20:57.262Z,13.03
2019-02-23T22:23:36.237Z,12.40
2019-02-23T22:26:15.290Z,11.70
2019-02-23T22:28:55.531Z,12.90
2019-02-23T22:31:34.732Z,12.75
2019-02-23T22:34:13.838Z,12.25
2019-02-23T22:36:52.922Z,11.75
2019-02-23T22:39:33.099Z,13.10
2019-02-23T22:42:13.390Z,13.48
2019-02-23T22:44:52.974Z,13.05
2019-02-23T22:47:32.585Z,12.58
2019-02-23T22:50:11.812Z,12.90
2019-02-23T22:52:51.641Z,13.05
2019-02-23T22:55:37.247Z,12.55
2019-02-23T22:58:19.169Z,13.25
2019-02-23T23:01:19.006Z,13.55
2019-02-23T23:04:00.153Z,13.80
2019-02-23T23:06:41.970Z,14.38
2019-02-23T23:09:22.916Z,14.13
2019-02-23T23:12:03.579Z,13.75
2019-02-23T23:14:44.470Z,12.53
2019-02-23T23:17:23.682Z,14.75
2019-02-23T23:20:04.786Z,15.13
2019-02-23T23:22:44.761Z,15.60
2019-02-23T23:25:23.818Z,14.83
2019-02-23T23:28:03.075Z,15.63
2019-02-23T23:30:52.235Z,13.65
2019-02-23T23:33:31.275Z,15.30
2019-02-23T23:36:09.996Z,16.00
2019-02-23T23:38:50.910Z,14.60
2019-02-23T23:41:31.338Z,14.80
2019-02-23T23:44:11.278Z,15.03
2019-02-23T23:46:53.206Z,14.40
2019-02-23T23:49:33.728Z,15.50
2019-02-23T23:52:13.489Z,14.35
2019-02-23T23:54:53.804Z,15.20
2019-02-23T23:57:34.440Z,14.10
